createdAt,value
2018-07-20T00:09:25.701Z,22.9
2018-07-20T00:19:24.960Z,22.9
2018-07-20T00:29:24.183Z,22.9
2018-07-20T00:39:23.421Z,22.9
2018-07-20T00:49:22.662Z,22.9
2018-07-20T00:59:21.952Z,23
2018-07-20T01:09:21.141Z,23.1
2018-07-20T01:19:20.430Z,23.1
2018-07-20T01:29:19.621Z,23.1
2018-07-20T01:39:18.863Z,23.2
2018-07-20T01:49:18.108Z,23.1
2018-07-20T01:59:17.341Z,23.1
2018-07-20T02:09:16.582Z,23.1
2018-07-20T02:19:15.873Z,23.2
2018-07-20T02:29:15.062Z,23.1
2018-07-20T02:39:14.356Z,23.1
2018-07-20T02:49:13.542Z,23.1
2018-07-20T02:59:12.782Z,23.1
2018-07-20T03:09:12.025Z,23.1
2018-07-20T03:19:11.267Z,23.2
2018-07-20T03:29:10.505Z,23.2
2018-07-20T03:39:09.745Z,23.2
2018-07-20T03:49:08.985Z,23.2
2018-07-20T03:59:08.231Z,23.3
2018-07-20T04:09:07.467Z,23.2
2018-07-20T04:19:06.705Z,23.2
2018-07-20T04:29:05.951Z,23.3
2018-07-20T04:39:05.186Z,23.3
2018-07-20T04:49:04.481Z,23.3
2018-07-20T04:59:03.666Z,23.4
2018-07-20T05:09:02.911Z,23.4
2018-07-20T05:19:02.146Z,23.4
2018-07-20T05:29:01.391Z,23.4
2018-07-20T05:39:00.625Z,23.6
2018-07-20T05:48:59.864Z,23.6
2018-07-20T05:58:59.107Z,23.7
2018-07-20T06:08:58.346Z,23.8
2018-07-20T06:18:57.614Z,23.9
2018-07-20T06:28:56.827Z,24.1
2018-07-20T06:38:56.066Z,24.3
2018-07-20T06:48:55.306Z,24.4
2018-07-20T06:58:54.544Z,24.4
2018-07-20T07:08:53.786Z,24.5
2018-07-20T07:18:53.026Z,24.6
2018-07-20T07:28:52.264Z,24.6
2018-07-20T07:38:51.504Z,24.7
2018-07-20T07:48:50.745Z,24.8
2018-07-20T07:58:49.984Z,24.9
2018-07-20T08:08:49.224Z,25.1
2018-07-20T08:18:48.465Z,25.1
2018-07-20T08:28:47.705Z,25.1
2018-07-20T08:38:46.944Z,25.1
2018-07-20T08:48:46.185Z,25.3
2018-07-20T08:58:45.430Z,25.3
2018-07-20T09:08:44.666Z,25.3
2018-07-20T09:18:43.903Z,25.4
2018-07-20T09:28:43.142Z,25.6
2018-07-20T09:38:42.384Z,25.8
2018-07-20T09:48:41.624Z,25.5
2018-07-20T09:58:40.865Z,25.9
2018-07-20T10:08:40.103Z,25.9
2018-07-20T10:18:39.343Z,25.8
2018-07-20T10:28:38.582Z,25.8
2018-07-20T10:38:37.820Z,26.1
2018-07-20T10:48:37.071Z,26.1
2018-07-20T10:58:36.301Z,26.1
2018-07-20T11:08:35.545Z,25.8
2018-07-20T11:18:34.781Z,26.3
2018-07-20T11:28:34.021Z,26.4
2018-07-20T11:38:33.260Z,26.3
2018-07-20T11:48:32.500Z,26.4
2018-07-20T11:58:31.738Z,26.3
2018-07-20T12:08:30.977Z,26.3
2018-07-20T12:18:30.218Z,26.3
2018-07-20T12:28:29.457Z,26.2
2018-07-20T12:38:28.696Z,26.1
2018-07-20T12:48:27.936Z,26.2
2018-07-20T12:58:27.248Z,26.2
2018-07-20T13:08:26.415Z,26.2
2018-07-20T13:18:25.656Z,26.2
2018-07-20T13:28:24.902Z,26.1
2018-07-20T13:38:24.133Z,26.1
2018-07-20T13:48:23.373Z,26.1
2018-07-20T13:58:22.657Z,26.1
2018-07-20T14:08:21.850Z,26.1
2018-07-20T14:18:21.096Z,26.1
2018-07-20T14:28:20.333Z,26.1
2018-07-20T14:38:19.570Z,26
2018-07-20T14:48:18.811Z,26
2018-07-20T14:58:18.049Z,26
2018-07-20T15:08:17.287Z,25.9
2018-07-20T15:18:16.575Z,26
2018-07-20T15:28:15.820Z,26
2018-07-20T15:38:15.025Z,25.9
2018-07-20T15:48:14.242Z,25.9
2018-07-20T15:58:13.481Z,25.8
2018-07-20T16:08:12.722Z,25.8
2018-07-20T16:18:11.967Z,25.6
2018-07-20T16:28:11.200Z,25.6
2018-07-20T16:38:10.439Z,25.6
2018-07-20T16:48:09.682Z,25.6
2018-07-20T16:58:08.923Z,25.4
2018-07-20T17:08:08.174Z,25.4
2018-07-20T17:18:07.398Z,25.2
2018-07-20T17:28:06.677Z,25.1
2018-07-20T17:38:05.877Z,25
2018-07-20T17:48:05.119Z,25
2018-07-20T17:58:04.358Z,24.9
2018-07-20T18:08:03.598Z,24.9
2018-07-20T18:18:02.841Z,24.8
2018-07-20T18:28:02.077Z,24.7
2018-07-20T18:38:01.320Z,24.6
2018-07-20T18:48:00.557Z,24.6
2018-07-20T18:57:59.799Z,24.4
2018-07-20T19:07:59.043Z,24.4
2018-07-20T19:17:58.287Z,24.3
2018-07-20T19:27:57.525Z,24.2
2018-07-20T19:37:56.771Z,24.1
2018-07-20T19:47:56.017Z,24.1
2018-07-20T19:57:55.265Z,24.1
2018-07-20T20:07:54.495Z,24.1
2018-07-20T20:17:53.735Z,24.1
2018-07-20T20:27:52.980Z,24.1
2018-07-20T20:37:52.222Z,24.1
2018-07-20T20:47:51.456Z,24.1
2018-07-20T20:57:50.696Z,24.1
2018-07-20T21:07:49.940Z,24.1
2018-07-20T21:17:49.226Z,24.1
2018-07-20T21:27:48.418Z,24
2018-07-20T21:37:47.655Z,24
2018-07-20T21:47:46.894Z,24
2018-07-20T21:57:46.135Z,24
2018-07-20T22:07:45.374Z,24
2018-07-20T22:17:44.617Z,24
2018-07-20T22:27:43.850Z,24
2018-07-20T22:37:43.089Z,24
2018-07-20T22:47:42.328Z,24
2018-07-20T22:57:41.569Z,23.9
2018-07-20T23:07:40.803Z,23.9
2018-07-20T23:17:40.043Z,23.9
2018-07-20T23:27:39.285Z,23.9
2018-07-20T23:37:38.531Z,23.8
2018-07-20T23:47:37.758Z,23.8
2018-07-20T23:57:36.994Z,23.8
